sensor_id;sensor_type;location;lat;lon;timestamp;pressure;altitude;pressure_sealevel;temperature;humidity
10832;BME280;5469;48.574;8.768;2023-03-01T00:01:05;95459.59;;;0.20;nan
10832;BME280;5469;48.574;8.768;2023-03-01T00:03:41;95456.91;;;0.07;nan
10832;BME280;5469;48.574;8.768;2023-03-01T00:06:18;95453.53;;;0.13;nan
10832;BME280;5469;48.574;8.768;2023-03-01T00:08:53;95453.53;;;0.13;nan
10832;BME280;5469;48.574;8.768;2023-03-01T00:11:30;95453.84;;;0.31;nan
10832;BME280;5469;48.574;8.768;2023-03-01T00:14:05;95457.25;;;0.32;nan
10832;BME280;5469;48.574;8.768;2023-03-01T00:16:42;95459.59;;;0.20;nan
10832;BME280;5469;48.574;8.768;2023-03-01T00:19:19;95445.56;;;0.21;nan
10832;BME280;5469;48.574;8.768;2023-03-01T00:21:57;95457.94;;;0.12;nan
10832;BME280;5469;48.574;8.768;2023-03-01T00:24:32;95453.34;;;-0.14;nan
10832;BME280;5469;48.574;8.768;2023-03-01T00:27:09;95454.22;;;-0.07;nan
10832;BME280;5469;48.574;8.768;2023-03-01T00:29:44;95463.38;;;-0.11;nan
10832;BME280;5469;48.574;8.768;2023-03-01T00:32:19;95449.31;;;-0.16;nan
10832;BME280;5469;48.574;8.768;2023-03-01T00:34:54;95451.59;;;-0.07;nan
10832;BME280;5469;48.574;8.768;2023-03-01T00:37:31;95447.91;;;-0.19;nan
10832;BME280;5469;48.574;8.768;2023-03-01T00:40:08;95443.09;;;-0.22;nan
10832;BME280;5469;48.574;8.768;2023-03-01T00:42:44;95445.78;;;-0.09;nan
10832;BME280;5469;48.574;8.768;2023-03-01T00:45:19;95442.63;;;0.03;nan
10832;BME280;5469;48.574;8.768;2023-03-01T00:47:54;95444.56;;;-0.13;nan
10832;BME280;5469;48.574;8.768;2023-03-01T00:50:30;95439.69;;;-0.16;nan
10832;BME280;5469;48.574;8.768;2023-03-01T00:53:07;95434.06;;;0.09;nan
10832;BME280;5469;48.574;8.768;2023-03-01T00:55:42;95436.38;;;-0.31;nan
10832;BME280;5469;48.574;8.768;2023-03-01T00:58:17;95438.19;;;-0.04;nan
10832;BME280;5469;48.574;8.768;2023-03-01T01:00:52;95434.47;;;0.06;nan
10832;BME280;5469;48.574;8.768;2023-03-01T01:03:27;95426.63;;;0.06;nan
10832;BME280;5469;48.574;8.768;2023-03-01T01:06:02;95432.03;;;-0.24;nan
10832;BME280;5469;48.574;8.768;2023-03-01T01:08:44;95426.25;;;-0.48;nan
10832;BME280;5469;48.574;8.768;2023-03-01T01:11:20;95424.53;;;-0.06;nan
10832;BME280;5469;48.574;8.768;2023-03-01T01:13:57;95419.06;;;-0.46;nan
10832;BME280;5469;48.574;8.768;2023-03-01T01:16:32;95420.44;;;-0.22;nan
10832;BME280;5469;48.574;8.768;2023-03-01T01:19:09;95416.41;;;-0.24;nan
10832;BME280;5469;48.574;8.768;2023-03-01T01:21:44;95418.69;;;-0.42;nan
10832;BME280;5469;48.574;8.768;2023-03-01T01:24:21;95418.31;;;-0.11;nan
10832;BME280;5469;48.574;8.768;2023-03-01T01:26:56;95408.56;;;-0.59;nan
10832;BME280;5469;48.574;8.768;2023-03-01T01:29:31;95406.19;;;-0.54;nan
10832;BME280;5469;48.574;8.768;2023-03-01T01:32:07;95405.09;;;-0.66;nan
10832;BME280;5469;48.574;8.768;2023-03-01T01:34:42;95397.94;;;-0.29;nan
10832;BME280;5469;48.574;8.768;2023-03-01T01:37:17;95389.88;;;-0.41;nan
10832;BME280;5469;48.574;8.768;2023-03-01T01:39:54;95396.78;;;-0.76;nan
10832;BME280;5469;48.574;8.768;2023-03-01T01:42:28;95398.13;;;-0.59;nan
10832;BME280;5469;48.574;8.768;2023-03-01T01:45:32;95392.25;;;-0.39;nan
10832;BME280;5469;48.574;8.768;2023-03-01T01:48:20;95391.78;;;-0.50;nan
10832;BME280;5469;48.574;8.768;2023-03-01T01:51:00;95392.78;;;-0.51;nan
10832;BME280;5469;48.574;8.768;2023-03-01T01:53:35;95396.41;;;-0.73;nan
10832;BME280;5469;48.574;8.768;2023-03-01T01:56:13;95391.38;;;-0.53;nan
10832;BME280;5469;48.574;8.768;2023-03-01T01:58:51;95390.50;;;-0.60;nan
10832;BME280;5469;48.574;8.768;2023-03-01T02:01:27;95389.72;;;-1.04;nan
10832;BME280;5469;48.574;8.768;2023-03-01T02:04:02;95391.06;;;-0.93;nan
10832;BME280;5469;48.574;8.768;2023-03-01T02:06:41;95389.31;;;-0.58;nan
10832;BME280;5469;48.574;8.768;2023-03-01T02:09:20;95383.22;;;-0.72;nan
10832;BME280;5469;48.574;8.768;2023-03-01T02:11:59;95381.00;;;-0.47;nan
10832;BME280;5469;48.574;8.768;2023-03-01T02:14:34;95373.59;;;-0.71;nan
10832;BME280;5469;48.574;8.768;2023-03-01T02:17:10;95374.03;;;-0.68;nan
10832;BME280;5469;48.574;8.768;2023-03-01T02:19:53;95372.50;;;-0.62;nan
10832;BME280;5469;48.574;8.768;2023-03-01T02:22:33;95371.91;;;-0.85;nan
10832;BME280;5469;48.574;8.768;2023-03-01T02:27:58;95368.78;;;-0.74;nan
10832;BME280;5469;48.574;8.768;2023-03-01T02:30:38;95364.34;;;-0.80;nan
10832;BME280;5469;48.574;8.768;2023-03-01T02:33:36;95357.66;;;-1.11;nan
10832;BME280;5469;48.574;8.768;2023-03-01T02:36:17;95358.66;;;-0.91;nan
10832;BME280;5469;48.574;8.768;2023-03-01T02:38:55;95361.91;;;-0.82;nan
10832;BME280;5469;48.574;8.768;2023-03-01T02:41:34;95354.75;;;-0.73;nan
10832;BME280;5469;48.574;8.768;2023-03-01T02:44:10;95351.78;;;-0.70;nan
10832;BME280;5469;48.574;8.768;2023-03-01T02:46:49;95349.56;;;-0.73;nan
10832;BME280;5469;48.574;8.768;2023-03-01T02:49:26;95346.13;;;-1.02;nan
10832;BME280;5469;48.574;8.768;2023-03-01T02:52:30;95346.88;;;-0.58;nan
10832;BME280;5469;48.574;8.768;2023-03-01T02:55:11;95342.28;;;-0.84;nan
10832;BME280;5469;48.574;8.768;2023-03-01T02:57:48;95338.41;;;-0.67;nan
10832;BME280;5469;48.574;8.768;2023-03-01T03:00:28;95330.88;;;-0.55;nan
10832;BME280;5469;48.574;8.768;2023-03-01T03:03:05;95321.72;;;-0.45;nan
10832;BME280;5469;48.574;8.768;2023-03-01T03:05:42;95326.44;;;-0.55;nan
10832;BME280;5469;48.574;8.768;2023-03-01T03:08:17;95323.97;;;-0.41;nan
10832;BME280;5469;48.574;8.768;2023-03-01T03:10:57;95316.72;;;-0.39;nan
10832;BME280;5469;48.574;8.768;2023-03-01T03:13:33;95316.16;;;-0.35;nan
10832;BME280;5469;48.574;8.768;2023-03-01T03:16:08;95315.22;;;-0.62;nan
10832;BME280;5469;48.574;8.768;2023-03-01T03:18:44;95309.06;;;-0.48;nan
10832;BME280;5469;48.574;8.768;2023-03-01T03:21:19;95308.00;;;-0.60;nan
10832;BME280;5469;48.574;8.768;2023-03-01T03:23:54;95303.63;;;-0.53;nan
10832;BME280;5469;48.574;8.768;2023-03-01T03:26:31;95305.25;;;-0.52;nan
10832;BME280;5469;48.574;8.768;2023-03-01T03:29:06;95300.53;;;-0.41;nan
10832;BME280;5469;48.574;8.768;2023-03-01T03:31:41;95313.19;;;-0.67;nan
10832;BME280;5469;48.574;8.768;2023-03-01T03:34:17;95306.06;;;-0.79;nan
10832;BME280;5469;48.574;8.768;2023-03-01T03:36:55;95309.22;;;-0.56;nan
10832;BME280;5469;48.574;8.768;2023-03-01T03:39:32;95302.44;;;-0.57;nan
10832;BME280;5469;48.574;8.768;2023-03-01T03:42:08;95304.56;;;-0.32;nan
10832;BME280;5469;48.574;8.768;2023-03-01T03:44:43;95310.22;;;-0.22;nan
10832;BME280;5469;48.574;8.768;2023-03-01T03:47:18;95310.63;;;-0.18;nan
10832;BME280;5469;48.574;8.768;2023-03-01T03:49:54;95310.84;;;-0.13;nan
10832;BME280;5469;48.574;8.768;2023-03-01T03:52:29;95309.16;;;0.07;nan
10832;BME280;5469;48.574;8.768;2023-03-01T03:55:06;95313.72;;;-0.02;nan
10832;BME280;5469;48.574;8.768;2023-03-01T03:57:45;95305.19;;;-0.30;nan
10832;BME280;5469;48.574;8.768;2023-03-01T04:00:25;95302.50;;;-0.43;nan
10832;BME280;5469;48.574;8.768;2023-03-01T04:03:01;95307.91;;;-0.04;nan
10832;BME280;5469;48.574;8.768;2023-03-01T04:05:39;95299.06;;;-0.51;nan
10832;BME280;5469;48.574;8.768;2023-03-01T04:08:14;95298.00;;;-0.22;nan
10832;BME280;5469;48.574;8.768;2023-03-01T04:10:52;95290.69;;;-0.39;nan
10832;BME280;5469;48.574;8.768;2023-03-01T04:13:31;95294.81;;;-0.17;nan
10832;BME280;5469;48.574;8.768;2023-03-01T04:16:07;95295.84;;;-0.11;nan
10832;BME280;5469;48.574;8.768;2023-03-01T04:18:42;95291.16;;;0.19;nan
10832;BME280;5469;48.574;8.768;2023-03-01T04:21:19;95284.41;;;-0.17;nan
10832;BME280;5469;48.574;8.768;2023-03-01T04:23:54;95288.25;;;-0.13;nan
10832;BME280;5469;48.574;8.768;2023-03-01T04:26:29;95286.06;;;-0.03;nan
10832;BME280;5469;48.574;8.768;2023-03-01T04:29:04;95282.25;;;-0.07;nan
10832;BME280;5469;48.574;8.768;2023-03-01T04:31:39;95275.22;;;-0.13;nan
10832;BME280;5469;48.574;8.768;2023-03-01T04:34:14;95271.44;;;-0.04;nan
10832;BME280;5469;48.574;8.768;2023-03-01T04:36:50;95276.63;;;-0.04;nan
10832;BME280;5469;48.574;8.768;2023-03-01T04:39:25;95273.06;;;-0.03;nan
10832;BME280;5469;48.574;8.768;2023-03-01T04:42:00;95271.84;;;0.00;nan
10832;BME280;5469;48.574;8.768;2023-03-01T04:44:34;95276.41;;;-0.09;nan
10832;BME280;5469;48.574;8.768;2023-03-01T04:47:09;95277.66;;;-0.05;nan
10832;BME280;5469;48.574;8.768;2023-03-01T04:49:44;95290.16;;;-0.28;nan
10832;BME280;5469;48.574;8.768;2023-03-01T04:52:22;95280.56;;;-0.21;nan
10832;BME280;5469;48.574;8.768;2023-03-01T04:54:57;95271.03;;;-0.01;nan
10832;BME280;5469;48.574;8.768;2023-03-01T04:57:32;95275.44;;;-0.08;nan
10832;BME280;5469;48.574;8.768;2023-03-01T05:00:10;95274.41;;;-0.07;nan
10832;BME280;5469;48.574;8.768;2023-03-01T05:02:56;95276.66;;;0.03;nan
10832;BME280;5469;48.574;8.768;2023-03-01T05:05:34;95278.34;;;0.24;nan
10832;BME280;5469;48.574;8.768;2023-03-01T05:08:11;95274.19;;;-0.12;nan
10832;BME280;5469;48.574;8.768;2023-03-01T05:10:52;95272.97;;;-0.16;nan
10832;BME280;5469;48.574;8.768;2023-03-01T05:13:28;95274.19;;;-0.12;nan
10832;BME280;5469;48.574;8.768;2023-03-01T05:16:04;95270.13;;;-0.21;nan
10832;BME280;5469;48.574;8.768;2023-03-01T05:18:40;95267.41;;;-0.06;nan
10832;BME280;5469;48.574;8.768;2023-03-01T05:21:17;95268.06;;;0.09;nan
10832;BME280;5469;48.574;8.768;2023-03-01T05:23:54;95265.75;;;-0.20;nan
10832;BME280;5469;48.574;8.768;2023-03-01T05:26:29;95262.66;;;0.11;nan
10832;BME280;5469;48.574;8.768;2023-03-01T05:29:04;95265.06;;;0.06;nan
10832;BME280;5469;48.574;8.768;2023-03-01T05:31:39;95265.00;;;-0.08;nan
10832;BME280;5469;48.574;8.768;2023-03-01T05:34:14;95269.81;;;-0.05;nan
10832;BME280;5469;48.574;8.768;2023-03-01T05:36:50;95274.38;;;-0.20;nan
10832;BME280;5469;48.574;8.768;2023-03-01T05:39:29;95272.91;;;-0.29;nan
10832;BME280;5469;48.574;8.768;2023-03-01T05:42:06;95271.59;;;-0.12;nan
10832;BME280;5469;48.574;8.768;2023-03-01T05:44:42;95259.47;;;0.22;nan
10832;BME280;5469;48.574;8.768;2023-03-01T05:47:17;95268.19;;;-0.06;nan
10832;BME280;5469;48.574;8.768;2023-03-01T05:49:53;95263.16;;;-0.14;nan
10832;BME280;5469;48.574;8.768;2023-03-01T05:52:28;95261.78;;;-0.10;nan
10832;BME280;5469;48.574;8.768;2023-03-01T05:55:06;95261.63;;;-0.02;nan
10832;BME280;5469;48.574;8.768;2023-03-01T05:57:41;95251.00;;;0.00;nan
10832;BME280;5469;48.574;8.768;2023-03-01T06:00:17;95260.66;;;0.13;nan
10832;BME280;5469;48.574;8.768;2023-03-01T06:02:52;95256.03;;;0.08;nan
10832;BME280;5469;48.574;8.768;2023-03-01T06:05:28;95258.25;;;0.11;nan
10832;BME280;5469;48.574;8.768;2023-03-01T06:08:04;95260.59;;;-0.01;nan
10832;BME280;5469;48.574;8.768;2023-03-01T06:10:41;95264.66;;;0.09;nan
10832;BME280;5469;48.574;8.768;2023-03-01T06:13:16;95259.53;;;-0.19;nan
10832;BME280;5469;48.574;8.768;2023-03-01T06:15:51;95263.44;;;0.05;nan
10832;BME280;5469;48.574;8.768;2023-03-01T06:18:26;95255.03;;;0.09;nan
10832;BME280;5469;48.574;8.768;2023-03-01T06:21:02;95257.44;;;0.11;nan
10832;BME280;5469;48.574;8.768;2023-03-01T06:23:38;95262.00;;;-0.05;nan
10832;BME280;5469;48.574;8.768;2023-03-01T06:26:15;95259.00;;;-0.02;nan
10832;BME280;5469;48.574;8.768;2023-03-01T06:28:51;95255.75;;;-0.17;nan
10832;BME280;5469;48.574;8.768;2023-03-01T06:31:26;95247.78;;;0.05;nan
10832;BME280;5469;48.574;8.768;2023-03-01T06:34:02;95249.06;;;0.22;nan
10832;BME280;5469;48.574;8.768;2023-03-01T06:36:37;95248.81;;;0.04;nan
10832;BME280;5469;48.574;8.768;2023-03-01T06:39:12;95244.25;;;0.32;nan
10832;BME280;5469;48.574;8.768;2023-03-01T06:41:48;95254.81;;;-0.03;nan
10832;BME280;5469;48.574;8.768;2023-03-01T06:44:23;95248.53;;;-0.15;nan
10832;BME280;5469;48.574;8.768;2023-03-01T06:46:58;95250.34;;;-0.09;nan
10832;BME280;5469;48.574;8.768;2023-03-01T06:49:33;95245.03;;;0.19;nan
10832;BME280;5469;48.574;8.768;2023-03-01T06:52:08;95246.25;;;0.24;nan
10832;BME280;5469;48.574;8.768;2023-03-01T06:54:43;95236.66;;;0.44;nan
10832;BME280;5469;48.574;8.768;2023-03-01T06:57:20;95241.28;;;0.49;nan
10832;BME280;5469;48.574;8.768;2023-03-01T06:59:56;95250.88;;;0.41;nan
10832;BME280;5469;48.574;8.768;2023-03-01T07:02:31;95240.84;;;0.38;nan
10832;BME280;5469;48.574;8.768;2023-03-01T07:05:08;95245.91;;;0.53;nan
10832;BME280;5469;48.574;8.768;2023-03-01T07:07:43;95233.44;;;0.49;nan
10832;BME280;5469;48.574;8.768;2023-03-01T07:10:19;95237.28;;;0.79;nan
10832;BME280;5469;48.574;8.768;2023-03-01T07:12:58;95237.47;;;0.58;nan
10832;BME280;5469;48.574;8.768;2023-03-01T07:15:35;95231.84;;;0.74;nan
10832;BME280;5469;48.574;8.768;2023-03-01T07:18:11;95227.03;;;0.84;nan
10832;BME280;5469;48.574;8.768;2023-03-01T07:20:46;95232.25;;;0.64;nan
10832;BME280;5469;48.574;8.768;2023-03-01T07:23:21;95232.25;;;0.98;nan
10832;BME280;5469;48.574;8.768;2023-03-01T07:25:56;95228.06;;;0.83;nan
10832;BME280;5469;48.574;8.768;2023-03-01T07:28:32;95228.84;;;0.77;nan
10832;BME280;5469;48.574;8.768;2023-03-01T07:31:09;95224.41;;;0.78;nan
10832;BME280;5469;48.574;8.768;2023-03-01T07:33:45;95226.22;;;0.97;nan
10832;BME280;5469;48.574;8.768;2023-03-01T07:36:20;95224.84;;;0.81;nan
10832;BME280;5469;48.574;8.768;2023-03-01T07:38:55;95224.44;;;0.71;nan
10832;BME280;5469;48.574;8.768;2023-03-01T07:41:31;95224.63;;;0.90;nan
10832;BME280;5469;48.574;8.768;2023-03-01T07:44:07;95216.59;;;0.98;nan
10832;BME280;5469;48.574;8.768;2023-03-01T07:46:42;95218.19;;;0.85;nan
10832;BME280;5469;48.574;8.768;2023-03-01T07:49:17;95214.59;;;1.00;nan
10832;BME280;5469;48.574;8.768;2023-03-01T07:51:52;95217.38;;;1.05;nan
10832;BME280;5469;48.574;8.768;2023-03-01T07:54:27;95214.78;;;1.05;nan
10832;BME280;5469;48.574;8.768;2023-03-01T07:57:02;95213.75;;;1.19;nan
10832;BME280;5469;48.574;8.768;2023-03-01T07:59:38;95212.91;;;1.39;nan
10832;BME280;5469;48.574;8.768;2023-03-01T08:02:13;95204.47;;;1.37;nan
10832;BME280;5469;48.574;8.768;2023-03-01T08:04:49;95207.22;;;1.55;nan
10832;BME280;5469;48.574;8.768;2023-03-01T08:07:25;95203.66;;;1.43;nan
10832;BME280;5469;48.574;8.768;2023-03-01T08:10:00;95210.47;;;1.44;nan
10832;BME280;5469;48.574;8.768;2023-03-01T08:12:35;95202.03;;;1.48;nan
10832;BME280;5469;48.574;8.768;2023-03-01T08:15:12;95207.16;;;1.82;nan
10832;BME280;5469;48.574;8.768;2023-03-01T08:17:47;95203.56;;;1.63;nan
10832;BME280;5469;48.574;8.768;2023-03-01T08:20:23;95209.22;;;1.53;nan
10832;BME280;5469;48.574;8.768;2023-03-01T08:23:00;95205.09;;;1.84;nan
10832;BME280;5469;48.574;8.768;2023-03-01T08:25:36;95199.38;;;1.62;nan
10832;BME280;5469;48.574;8.768;2023-03-01T08:28:10;95192.69;;;1.72;nan
10832;BME280;5469;48.574;8.768;2023-03-01T08:30:47;95202.19;;;2.05;nan
10832;BME280;5469;48.574;8.768;2023-03-01T08:33:22;95191.84;;;2.24;nan
10832;BME280;5469;48.574;8.768;2023-03-01T08:36:03;95194.97;;;2.39;nan
10832;BME280;5469;48.574;8.768;2023-03-01T08:38:40;95196.13;;;2.43;nan
10832;BME280;5469;48.574;8.768;2023-03-01T08:41:16;95208.94;;;2.19;nan
10832;BME280;5469;48.574;8.768;2023-03-01T08:43:51;95197.94;;;2.43;nan
10832;BME280;5469;48.574;8.768;2023-03-01T08:46:35;95195.72;;;2.71;nan
10832;BME280;5469;48.574;8.768;2023-03-01T08:49:14;95194.16;;;2.63;nan
10832;BME280;5469;48.574;8.768;2023-03-01T08:51:50;95189.69;;;2.71;nan
10832;BME280;5469;48.574;8.768;2023-03-01T08:54:25;95179.84;;;2.91;nan
10832;BME280;5469;48.574;8.768;2023-03-01T08:57:03;95184.22;;;2.97;nan
10832;BME280;5469;48.574;8.768;2023-03-01T08:59:37;95185.13;;;2.84;nan
10832;BME280;5469;48.574;8.768;2023-03-01T09:02:19;95178.84;;;3.11;nan
10832;BME280;5469;48.574;8.768;2023-03-01T09:04:54;95182.22;;;3.36;nan
10832;BME280;5469;48.574;8.768;2023-03-01T09:07:29;95179.75;;;3.60;nan
10832;BME280;5469;48.574;8.768;2023-03-01T09:10:05;95176.09;;;3.24;nan
10832;BME280;5469;48.574;8.768;2023-03-01T09:12:40;95175.38;;;3.35;nan
10832;BME280;5469;48.574;8.768;2023-03-01T09:15:16;95173.28;;;3.44;nan
10832;BME280;5469;48.574;8.768;2023-03-01T09:17:52;95164.31;;;3.52;nan
10832;BME280;5469;48.574;8.768;2023-03-01T09:20:27;95161.41;;;3.60;nan
10832;BME280;5469;48.574;8.768;2023-03-01T09:23:03;95150.03;;;3.66;nan
10832;BME280;5469;48.574;8.768;2023-03-01T09:25:38;95143.00;;;3.78;nan
10832;BME280;5469;48.574;8.768;2023-03-01T09:28:13;95141.78;;;4.11;nan
10832;BME280;5469;48.574;8.768;2023-03-01T09:30:47;95137.16;;;4.36;nan
10832;BME280;5469;48.574;8.768;2023-03-01T09:33:24;95144.06;;;4.19;nan
10832;BME280;5469;48.574;8.768;2023-03-01T09:35:59;95144.34;;;4.29;nan
10832;BME280;5469;48.574;8.768;2023-03-01T09:38:35;95150.50;;;4.23;nan
10832;BME280;5469;48.574;8.768;2023-03-01T09:41:26;95140.81;;;3.93;nan
10832;BME280;5469;48.574;8.768;2023-03-01T09:44:08;95149.41;;;4.66;nan
10832;BME280;5469;48.574;8.768;2023-03-01T09:46:47;95151.25;;;4.77;nan
10832;BME280;5469;48.574;8.768;2023-03-01T09:49:25;95148.72;;;4.59;nan
10832;BME280;5469;48.574;8.768;2023-03-01T09:52:03;95147.75;;;5.59;nan
10832;BME280;5469;48.574;8.768;2023-03-01T09:54:55;95140.16;;;6.32;nan
10832;BME280;5469;48.574;8.768;2023-03-01T09:57:36;95151.03;;;6.52;nan
10832;BME280;5469;48.574;8.768;2023-03-01T10:00:35;95137.94;;;7.69;nan
10832;BME280;5469;48.574;8.768;2023-03-01T10:03:16;95137.25;;;7.57;nan
10832;BME280;5469;48.574;8.768;2023-03-01T10:05:57;95122.69;;;8.85;nan
10832;BME280;5469;48.574;8.768;2023-03-01T10:08:40;95130.56;;;9.75;nan
10832;BME280;5469;48.574;8.768;2023-03-01T10:11:19;95131.75;;;10.10;nan
10832;BME280;5469;48.574;8.768;2023-03-01T10:14:01;95135.84;;;9.75;nan
10832;BME280;5469;48.574;8.768;2023-03-01T10:16:43;95126.53;;;10.76;nan
10832;BME280;5469;48.574;8.768;2023-03-01T10:19:27;95124.94;;;10.49;nan
10832;BME280;5469;48.574;8.768;2023-03-01T10:22:11;95116.66;;;11.33;nan
10832;BME280;5469;48.574;8.768;2023-03-01T10:24:49;95110.56;;;11.32;nan
10832;BME280;5469;48.574;8.768;2023-03-01T10:27:26;95107.22;;;11.71;nan
10832;BME280;5469;48.574;8.768;2023-03-01T10:30:09;95101.69;;;13.49;nan
10832;BME280;5469;48.574;8.768;2023-03-01T10:32:51;95081.44;;;15.46;nan
10832;BME280;5469;48.574;8.768;2023-03-01T10:35:29;95091.09;;;13.87;nan
10832;BME280;5469;48.574;8.768;2023-03-01T10:38:11;95103.38;;;-144.21;nan
10832;BME280;5469;48.574;8.768;2023-03-01T10:40:53;95100.50;;;14.79;nan
10832;BME280;5469;48.574;8.768;2023-03-01T10:43:42;95102.50;;;14.88;nan
10832;BME280;5469;48.574;8.768;2023-03-01T10:46:25;95106.66;;;14.94;nan
10832;BME280;5469;48.574;8.768;2023-03-01T10:49:07;95093.50;;;15.71;nan
10832;BME280;5469;48.574;8.768;2023-03-01T10:51:48;95093.50;;;15.71;nan
10832;BME280;5469;48.574;8.768;2023-03-01T10:54:28;95078.47;;;16.26;nan
10832;BME280;5469;48.574;8.768;2023-03-01T10:57:05;95073.31;;;15.65;nan
10832;BME280;5469;48.574;8.768;2023-03-01T10:59:40;95077.25;;;15.68;nan
10832;BME280;5469;48.574;8.768;2023-03-01T11:02:21;95078.38;;;14.93;nan
10832;BME280;5469;48.574;8.768;2023-03-01T11:05:02;95078.38;;;14.93;nan
10832;BME280;5469;48.574;8.768;2023-03-01T11:07:49;64575.81;;;-144.83;100.00
10832;BME280;5469;48.574;8.768;2023-03-01T11:10:29;95078.38;;;14.93;nan
10832;BME280;5469;48.574;8.768;2023-03-01T11:13:13;95055.47;;;14.92;nan
10832;BME280;5469;48.574;8.768;2023-03-01T11:16:00;95053.28;;;18.40;nan
10832;BME280;5469;48.574;8.768;2023-03-01T11:18:36;95053.28;;;18.40;nan
10832;BME280;5469;48.574;8.768;2023-03-01T11:21:12;95044.56;;;17.82;nan
10832;BME280;5469;48.574;8.768;2023-03-01T11:23:48;95032.78;;;20.36;nan
10832;BME280;5469;48.574;8.768;2023-03-01T11:26:25;95035.16;;;20.38;nan
10832;BME280;5469;48.574;8.768;2023-03-01T11:29:03;64575.81;;;-144.83;100.00
10832;BME280;5469;48.574;8.768;2023-03-01T11:31:41;64575.81;;;-144.83;100.00
10832;BME280;5469;48.574;8.768;2023-03-01T11:34:21;95035.25;;;17.31;nan
10832;BME280;5469;48.574;8.768;2023-03-01T11:37:02;95026.59;;;17.92;nan
10832;BME280;5469;48.574;8.768;2023-03-01T11:39:41;95008.91;;;20.14;nan
10832;BME280;5469;48.574;8.768;2023-03-01T11:42:24;95017.28;;;17.40;nan
10832;BME280;5469;48.574;8.768;2023-03-01T11:45:02;95014.25;;;16.93;nan
10832;BME280;5469;48.574;8.768;2023-03-01T11:47:58;95012.41;;;18.00;nan
10832;BME280;5469;48.574;8.768;2023-03-01T11:50:43;95006.72;;;19.56;nan
10832;BME280;5469;48.574;8.768;2023-03-01T11:53:42;95000.41;;;19.52;nan
10832;BME280;5469;48.574;8.768;2023-03-01T11:56:28;95007.38;;;17.41;nan
10832;BME280;5469;48.574;8.768;2023-03-01T11:59:29;95003.91;;;17.00;nan
10832;BME280;5469;48.574;8.768;2023-03-01T12:02:27;95002.13;;;17.27;nan
10832;BME280;5469;48.574;8.768;2023-03-01T12:05:23;94980.28;;;19.29;nan
10832;BME280;5469;48.574;8.768;2023-03-01T12:08:04;94991.56;;;18.05;nan
10832;BME280;5469;48.574;8.768;2023-03-01T12:10:48;94985.38;;;17.13;nan
10832;BME280;5469;48.574;8.768;2023-03-01T12:14:01;94977.78;;;19.83;nan
10832;BME280;5469;48.574;8.768;2023-03-01T12:16:59;94979.56;;;18.38;nan
10832;BME280;5469;48.574;8.768;2023-03-01T12:22:38;94972.56;;;18.80;nan
10832;BME280;5469;48.574;8.768;2023-03-01T12:25:28;94965.53;;;19.05;nan
10832;BME280;5469;48.574;8.768;2023-03-01T12:31:36;94952.22;;;19.17;nan
10832;BME280;5469;48.574;8.768;2023-03-01T12:34:29;94947.84;;;19.04;nan
10832;BME280;5469;48.574;8.768;2023-03-01T12:37:25;94944.97;;;20.32;nan
10832;BME280;5469;48.574;8.768;2023-03-01T12:40:19;94950.03;;;18.46;nan
10832;BME280;5469;48.574;8.768;2023-03-01T12:43:07;94936.91;;;19.90;nan
10832;BME280;5469;48.574;8.768;2023-03-01T12:45:50;94934.75;;;20.58;nan
10832;BME280;5469;48.574;8.768;2023-03-01T12:48:36;94937.53;;;18.76;nan
10832;BME280;5469;48.574;8.768;2023-03-01T12:51:17;94928.38;;;19.37;nan
10832;BME280;5469;48.574;8.768;2023-03-01T12:53:57;94925.63;;;19.96;nan
10832;BME280;5469;48.574;8.768;2023-03-01T12:56:35;94909.00;;;20.48;nan
10832;BME280;5469;48.574;8.768;2023-03-01T12:59:17;94918.78;;;20.53;nan
10832;BME280;5469;48.574;8.768;2023-03-01T13:01:59;94907.16;;;18.85;nan
10832;BME280;5469;48.574;8.768;2023-03-01T13:04:53;94910.41;;;20.67;nan
10832;BME280;5469;48.574;8.768;2023-03-01T13:07:38;94912.84;;;18.19;nan
10832;BME280;5469;48.574;8.768;2023-03-01T13:10:24;94913.78;;;18.05;nan
10832;BME280;5469;48.574;8.768;2023-03-01T13:13:14;94914.66;;;18.53;nan
10832;BME280;5469;48.574;8.768;2023-03-01T13:15:54;94915.06;;;18.72;nan
10832;BME280;5469;48.574;8.768;2023-03-01T13:18:32;94907.19;;;19.65;nan
10832;BME280;5469;48.574;8.768;2023-03-01T13:21:07;94903.06;;;18.05;nan
10832;BME280;5469;48.574;8.768;2023-03-01T13:23:50;94891.81;;;20.07;nan
10832;BME280;5469;48.574;8.768;2023-03-01T13:26:25;94897.16;;;20.62;nan
10832;BME280;5469;48.574;8.768;2023-03-01T13:29:00;94905.63;;;16.30;nan
10832;BME280;5469;48.574;8.768;2023-03-01T13:31:58;94908.59;;;18.09;nan
10832;BME280;5469;48.574;8.768;2023-03-01T13:34:48;94895.22;;;19.33;nan
10832;BME280;5469;48.574;8.768;2023-03-01T13:37:33;94894.16;;;18.48;nan
10832;BME280;5469;48.574;8.768;2023-03-01T13:43:28;94896.53;;;18.50;nan
10832;BME280;5469;48.574;8.768;2023-03-01T13:46:10;94888.75;;;19.04;nan
10832;BME280;5469;48.574;8.768;2023-03-01T13:48:49;94893.25;;;18.83;nan
10832;BME280;5469;48.574;8.768;2023-03-01T13:51:27;94887.00;;;20.46;nan
10832;BME280;5469;48.574;8.768;2023-03-01T13:54:02;94894.25;;;19.08;nan
10832;BME280;5469;48.574;8.768;2023-03-01T13:56:39;94894.72;;;21.18;nan
10832;BME280;5469;48.574;8.768;2023-03-01T13:59:18;94890.28;;;19.35;nan
10832;BME280;5469;48.574;8.768;2023-03-01T14:01:54;94882.41;;;19.59;nan
10832;BME280;5469;48.574;8.768;2023-03-01T14:04:31;94893.06;;;18.96;nan
10832;BME280;5469;48.574;8.768;2023-03-01T14:07:17;94889.94;;;19.15;nan
10832;BME280;5469;48.574;8.768;2023-03-01T14:09:54;94880.91;;;20.70;nan
10832;BME280;5469;48.574;8.768;2023-03-01T14:12:46;94866.06;;;19.23;nan
10832;BME280;5469;48.574;8.768;2023-03-01T14:15:31;94876.44;;;17.57;nan
10832;BME280;5469;48.574;8.768;2023-03-01T14:18:12;94880.22;;;17.64;nan
10832;BME280;5469;48.574;8.768;2023-03-01T14:20:49;94875.16;;;17.63;nan
10832;BME280;5469;48.574;8.768;2023-03-01T14:23:27;94889.03;;;18.17;nan
10832;BME280;5469;48.574;8.768;2023-03-01T14:26:04;94887.91;;;18.27;nan
10832;BME280;5469;48.574;8.768;2023-03-01T14:28:39;94883.50;;;18.69;nan
10832;BME280;5469;48.574;8.768;2023-03-01T14:31:37;94882.56;;;17.49;nan
10832;BME280;5469;48.574;8.768;2023-03-01T14:34:19;94896.75;;;16.21;nan
10832;BME280;5469;48.574;8.768;2023-03-01T14:36:58;94896.75;;;16.52;nan
10832;BME280;5469;48.574;8.768;2023-03-01T14:39:45;94904.22;;;16.64;nan
10832;BME280;5469;48.574;8.768;2023-03-01T14:42:22;94901.13;;;15.71;nan
10832;BME280;5469;48.574;8.768;2023-03-01T14:45:00;94913.97;;;14.50;nan
10832;BME280;5469;48.574;8.768;2023-03-01T14:47:39;94903.59;;;17.07;nan
10832;BME280;5469;48.574;8.768;2023-03-01T14:50:21;94906.50;;;16.79;nan
10832;BME280;5469;48.574;8.768;2023-03-01T14:52:59;94912.34;;;17.38;nan